createdAt,value
2018-12-23T00:02:19.834Z,2.17
2018-12-23T00:04:47.332Z,2.20
2018-12-23T00:07:14.825Z,2.27
2018-12-23T00:09:42.395Z,2.17
2018-12-23T00:12:09.850Z,1.90
2018-12-23T00:14:37.398Z,1.93
2018-12-23T00:17:04.856Z,2.20
2018-12-23T00:19:32.447Z,2.27
2018-12-23T00:21:59.913Z,2.30
2018-12-23T00:24:27.404Z,2.10
2018-12-23T00:26:54.867Z,1.93
2018-12-23T00:29:22.321Z,2.10
2018-12-23T00:31:49.793Z,1.70
2018-12-23T00:34:17.255Z,2.03
2018-12-23T00:36:44.728Z,2.00
2018-12-23T00:39:12.188Z,2.03
2018-12-23T00:41:39.726Z,2.47
2018-12-23T00:44:07.224Z,2.07
2018-12-23T00:46:34.751Z,2.10
2018-12-23T00:49:02.223Z,2.47
2018-12-23T00:51:29.687Z,2.00
2018-12-23T00:53:57.678Z,2.10
2018-12-23T00:56:25.185Z,2.23
2018-12-23T00:58:52.642Z,2.23
2018-12-23T01:01:20.132Z,2.03
2018-12-23T01:03:47.597Z,2.07
2018-12-23T01:06:15.066Z,2.47
2018-12-23T01:08:42.513Z,2.57
2018-12-23T01:11:09.986Z,2.40
2018-12-23T01:13:38.010Z,2.07
2018-12-23T01:16:05.867Z,1.80
2018-12-23T01:18:33.430Z,1.73
2018-12-23T01:21:00.903Z,2.90
2018-12-23T01:23:28.370Z,2.27
2018-12-23T01:25:55.909Z,2.03
2018-12-23T01:28:23.379Z,3.47
2018-12-23T01:30:51.327Z,2.87
2018-12-23T01:33:18.799Z,2.30
2018-12-23T01:35:46.373Z,2.90
2018-12-23T01:38:13.918Z,2.47
2018-12-23T01:40:41.475Z,2.00
2018-12-23T01:43:08.949Z,1.77
2018-12-23T01:45:37.232Z,2.43
2018-12-23T01:48:04.783Z,2.03
2018-12-23T01:50:33.571Z,2.50
2018-12-23T01:53:01.130Z,2.40
2018-12-23T01:55:28.584Z,2.57
2018-12-23T01:57:56.065Z,2.20
2018-12-23T02:00:23.587Z,2.70
2018-12-23T02:02:51.060Z,2.03
2018-12-23T02:05:18.625Z,2.33
2018-12-23T02:07:46.155Z,2.80
2018-12-23T02:10:13.737Z,2.33
2018-12-23T02:12:41.262Z,2.27
2018-12-23T02:15:09.232Z,2.40
2018-12-23T02:17:36.804Z,2.07
2018-12-23T02:20:05.266Z,1.93
2018-12-23T02:22:32.761Z,2.20
2018-12-23T02:25:00.585Z,2.20
2018-12-23T02:27:28.088Z,2.30
2018-12-23T02:29:55.583Z,1.97
2018-12-23T02:32:23.108Z,2.10
2018-12-23T02:34:51.345Z,2.53
2018-12-23T02:37:18.818Z,2.00
2018-12-23T02:39:46.278Z,2.03
2018-12-23T02:42:13.818Z,2.00
2018-12-23T02:44:41.406Z,2.50
2018-12-23T02:47:08.858Z,2.37
2018-12-23T02:49:36.352Z,2.00
2018-12-23T02:52:03.821Z,2.70
2018-12-23T02:54:31.307Z,17.67
2018-12-23T02:56:58.802Z,7.23
2018-12-23T02:59:26.890Z,3.43
2018-12-23T03:01:54.408Z,3.20
2018-12-23T03:04:21.882Z,2.30
2018-12-23T03:06:49.324Z,2.43
2018-12-23T03:09:16.823Z,2.10
2018-12-23T03:11:44.300Z,1.80
2018-12-23T03:14:11.786Z,2.10
2018-12-23T03:16:39.276Z,2.20
2018-12-23T03:19:06.725Z,1.87
2018-12-23T03:21:34.423Z,2.50
2018-12-23T03:24:01.951Z,2.33
2018-12-23T03:26:29.478Z,2.10
2018-12-23T03:28:56.937Z,2.07
2018-12-23T03:31:24.424Z,2.20
2018-12-23T03:33:51.992Z,2.40
2018-12-23T03:36:19.540Z,2.27
2018-12-23T03:38:46.997Z,1.70
2018-12-23T03:41:14.558Z,2.23
2018-12-23T03:43:42.117Z,2.13
2018-12-23T03:46:09.585Z,2.00
2018-12-23T03:48:37.062Z,1.87
2018-12-23T03:51:04.586Z,2.07
2018-12-23T03:53:33.063Z,2.23
2018-12-23T03:56:00.627Z,1.67
2018-12-23T03:58:28.187Z,2.10
2018-12-23T04:00:55.630Z,1.90
2018-12-23T04:03:23.096Z,1.77
2018-12-23T04:05:50.661Z,1.70
2018-12-23T04:08:18.119Z,2.33
2018-12-23T04:10:45.582Z,1.83
2018-12-23T04:13:13.067Z,2.53
2018-12-23T04:15:40.518Z,2.00
2018-12-23T04:18:08.016Z,2.43
2018-12-23T04:20:35.503Z,2.00
2018-12-23T04:23:02.972Z,1.90
2018-12-23T04:25:30.430Z,2.00
2018-12-23T04:27:57.902Z,2.10
2018-12-23T04:30:25.536Z,2.00
2018-12-23T04:32:53.122Z,1.80
2018-12-23T04:35:20.664Z,2.13
2018-12-23T04:37:48.213Z,2.37
2018-12-23T04:40:15.662Z,2.30
2018-12-23T04:42:43.235Z,1.93
2018-12-23T04:45:11.180Z,1.97
2018-12-23T04:47:38.661Z,1.90
2018-12-23T04:50:07.512Z,1.80
2018-12-23T04:52:35.105Z,2.07
2018-12-23T04:55:02.571Z,1.83
2018-12-23T04:57:30.056Z,2.30
2018-12-23T04:59:57.516Z,2.10
2018-12-23T05:02:25.035Z,1.77
2018-12-23T05:04:52.603Z,2.10
2018-12-23T05:07:20.138Z,2.13
2018-12-23T05:09:47.629Z,2.07
2018-12-23T05:12:15.087Z,1.77
2018-12-23T05:14:44.733Z,2.57
2018-12-23T05:17:12.130Z,2.03
2018-12-23T05:19:39.595Z,1.97
2018-12-23T05:22:07.157Z,2.67
2018-12-23T05:24:34.636Z,1.80
2018-12-23T05:27:02.102Z,2.30
2018-12-23T05:29:29.829Z,1.80
2018-12-23T05:31:57.389Z,2.30
2018-12-23T05:34:24.858Z,2.40
2018-12-23T05:36:52.811Z,1.90
2018-12-23T05:39:20.395Z,2.00
2018-12-23T05:41:47.907Z,1.90
2018-12-23T05:44:15.384Z,2.13
2018-12-23T05:46:42.851Z,1.80
2018-12-23T05:49:10.323Z,2.00
2018-12-23T05:51:37.811Z,1.70
2018-12-23T05:54:05.275Z,2.27
2018-12-23T05:56:32.902Z,1.57
2018-12-23T05:59:00.403Z,1.90
2018-12-23T06:01:27.964Z,1.93
2018-12-23T06:03:56.309Z,1.60
2018-12-23T06:06:23.830Z,2.10
2018-12-23T06:08:51.370Z,1.90
2018-12-23T06:11:18.856Z,1.77
2018-12-23T06:13:46.308Z,1.80
2018-12-23T06:16:13.864Z,1.60
2018-12-23T06:18:41.423Z,1.43
2018-12-23T06:21:08.980Z,1.70
2018-12-23T06:23:36.427Z,2.37
2018-12-23T06:26:03.907Z,2.00
2018-12-23T06:28:31.413Z,1.53
2018-12-23T06:30:59.011Z,1.97
2018-12-23T06:33:26.674Z,1.93
2018-12-23T06:35:54.738Z,1.73
2018-12-23T06:38:22.202Z,1.97
2018-12-23T06:40:49.762Z,1.90
2018-12-23T06:43:17.247Z,1.93
2018-12-23T06:45:44.780Z,1.83
2018-12-23T06:48:12.443Z,1.90
2018-12-23T06:50:39.999Z,1.73
2018-12-23T06:53:07.543Z,1.90
2018-12-23T06:55:35.118Z,2.00
2018-12-23T06:58:02.646Z,1.73
2018-12-23T07:00:30.117Z,1.80
2018-12-23T07:02:57.673Z,1.97
2018-12-23T07:05:25.126Z,1.73
2018-12-23T07:07:52.604Z,2.03
2018-12-23T07:10:20.047Z,1.70
2018-12-23T07:12:47.610Z,2.20
2018-12-23T07:15:15.183Z,2.00
2018-12-23T07:17:42.647Z,2.13
2018-12-23T07:20:10.117Z,2.10
2018-12-23T07:22:38.558Z,1.60
2018-12-23T07:25:06.133Z,2.07
2018-12-23T07:27:33.760Z,2.20
2018-12-23T07:30:01.269Z,1.93
2018-12-23T07:32:28.808Z,1.90
2018-12-23T07:34:56.268Z,2.00
2018-12-23T07:37:27.602Z,2.50
2018-12-23T07:39:53.237Z,2.50
2018-12-23T07:42:20.796Z,2.40
2018-12-23T07:44:48.260Z,2.07
2018-12-23T07:47:15.751Z,2.50
2018-12-23T07:49:43.264Z,2.13
2018-12-23T07:52:10.924Z,2.50
2018-12-23T07:54:38.486Z,2.67
2018-12-23T07:57:05.928Z,2.20
2018-12-23T07:59:33.484Z,2.40
2018-12-23T08:02:00.944Z,2.77
2018-12-23T08:04:29.028Z,2.63
2018-12-23T08:06:56.493Z,2.87
2018-12-23T08:09:23.982Z,2.40
2018-12-23T08:11:52.049Z,2.90
2018-12-23T08:14:19.514Z,3.23
2018-12-23T08:16:47.030Z,2.50
2018-12-23T08:19:14.593Z,2.57
2018-12-23T08:21:42.683Z,3.03
2018-12-23T08:24:10.161Z,2.80
2018-12-23T08:26:38.480Z,3.23
2018-12-23T08:29:08.290Z,3.30
2018-12-23T08:31:35.797Z,2.97
2018-12-23T08:34:03.430Z,3.30
2018-12-23T08:36:30.903Z,2.63
2018-12-23T08:38:58.509Z,3.10
2018-12-23T08:41:25.998Z,3.20
2018-12-23T08:43:54.142Z,3.30
2018-12-23T08:46:21.702Z,2.80
2018-12-23T08:48:49.158Z,2.60
2018-12-23T08:51:16.649Z,4.40
2018-12-23T08:53:44.219Z,5.17
2018-12-23T08:56:11.766Z,3.17
2018-12-23T08:58:39.845Z,3.43
2018-12-23T09:01:07.341Z,3.10
2018-12-23T09:03:34.790Z,3.10
2018-12-23T09:06:02.318Z,3.03
2018-12-23T09:08:30.488Z,2.50
2018-12-23T09:10:58.663Z,3.42
2018-12-23T09:13:26.120Z,3.00
2018-12-23T09:15:53.812Z,3.17
2018-12-23T09:18:21.299Z,3.03
2018-12-23T09:20:48.785Z,3.60
2018-12-23T09:23:16.256Z,3.43
2018-12-23T09:25:43.734Z,3.33
2018-12-23T09:28:11.197Z,3.23
2018-12-23T09:30:38.721Z,3.17
2018-12-23T09:33:06.257Z,2.47
2018-12-23T09:35:33.760Z,3.33
2018-12-23T09:38:01.724Z,3.23
2018-12-23T09:40:30.005Z,3.10
2018-12-23T09:42:57.495Z,3.37
2018-12-23T09:45:24.959Z,3.47
2018-12-23T09:47:52.473Z,3.60
2018-12-23T09:50:20.608Z,3.40
2018-12-23T09:52:48.079Z,2.90
2018-12-23T09:55:15.638Z,3.27
2018-12-23T09:57:43.175Z,3.40
2018-12-23T10:00:10.696Z,3.70
2018-12-23T10:02:38.177Z,3.27
2018-12-23T10:05:06.254Z,3.20
2018-12-23T10:10:08.491Z,3.07
2018-12-23T10:12:36.040Z,3.20
2018-12-23T10:15:03.757Z,3.93
2018-12-23T10:17:31.259Z,3.23
2018-12-23T10:19:59.184Z,3.50
2018-12-23T10:22:26.789Z,3.20
2018-12-23T10:24:54.545Z,3.70
2018-12-23T10:27:22.116Z,3.37
2018-12-23T10:29:49.861Z,3.33
2018-12-23T10:32:17.842Z,3.60
2018-12-23T10:34:45.359Z,3.40
2018-12-23T10:37:12.831Z,3.70
2018-12-23T10:39:40.694Z,3.67
2018-12-23T10:42:08.276Z,5.53
2018-12-23T10:44:35.846Z,5.87
2018-12-23T10:47:03.404Z,3.57
2018-12-23T10:49:31.368Z,3.77
2018-12-23T10:51:58.963Z,3.07
2018-12-23T10:54:28.957Z,3.30
2018-12-23T10:56:56.516Z,4.03
2018-12-23T10:59:23.970Z,3.60
2018-12-23T11:01:51.498Z,3.60
2018-12-23T11:04:19.020Z,4.00
2018-12-23T11:06:46.489Z,3.90
2018-12-23T11:09:13.970Z,4.00
2018-12-23T11:11:41.537Z,4.43
2018-12-23T11:14:09.124Z,4.13
2018-12-23T11:16:36.587Z,4.60
2018-12-23T11:19:04.309Z,7.20
2018-12-23T11:21:31.784Z,6.10
2018-12-23T11:24:00.138Z,4.67
2018-12-23T11:26:27.604Z,4.63
2018-12-23T11:28:55.087Z,4.50
2018-12-23T11:31:22.646Z,5.30
2018-12-23T11:33:50.812Z,4.57
2018-12-23T11:36:18.686Z,4.40
2018-12-23T11:38:46.162Z,4.87
2018-12-23T11:41:13.651Z,4.87
2018-12-23T11:43:41.277Z,4.90
2018-12-23T11:46:08.820Z,4.87
2018-12-23T11:48:36.325Z,5.47
2018-12-23T11:51:03.883Z,4.90
2018-12-23T11:53:31.366Z,5.97
2018-12-23T11:55:58.840Z,5.53
2018-12-23T11:58:26.538Z,5.83
2018-12-23T12:00:54.074Z,5.47
2018-12-23T12:03:21.543Z,9.70
2018-12-23T12:05:49.095Z,7.10
2018-12-23T12:08:16.562Z,7.70
2018-12-23T12:10:44.035Z,6.93
2018-12-23T12:13:12.432Z,6.97
2018-12-23T12:15:39.916Z,6.50
2018-12-23T12:18:07.370Z,6.80
2018-12-23T12:20:34.955Z,7.23
2018-12-23T12:23:02.411Z,6.90
2018-12-23T12:25:29.889Z,7.30
2018-12-23T12:27:57.356Z,7.47
2018-12-23T12:30:24.851Z,7.27
2018-12-23T12:32:52.344Z,7.47
2018-12-23T12:35:19.862Z,16.50
2018-12-23T12:37:48.043Z,9.00
2018-12-23T12:40:15.616Z,13.97
2018-12-23T12:42:43.708Z,7.33
2018-12-23T12:45:11.906Z,6.80
2018-12-23T12:47:39.367Z,6.30
2018-12-23T12:50:06.851Z,5.83
2018-12-23T12:52:34.330Z,5.57
2018-12-23T12:55:01.916Z,4.73
2018-12-23T12:57:29.432Z,5.60
2018-12-23T12:59:56.914Z,5.13
2018-12-23T13:02:24.379Z,5.53
2018-12-23T13:04:52.257Z,5.07
2018-12-23T13:07:20.482Z,5.37
2018-12-23T13:09:48.088Z,5.20
2018-12-23T13:12:15.554Z,5.33
2018-12-23T13:14:43.011Z,5.73
2018-12-23T13:17:10.486Z,5.70
2018-12-23T13:19:37.965Z,5.83
2018-12-23T13:22:05.696Z,6.00
2018-12-23T13:24:33.368Z,4.87
2018-12-23T13:27:00.892Z,5.53
2018-12-23T13:29:28.351Z,4.53
2018-12-23T13:31:55.897Z,4.77
2018-12-23T13:34:23.358Z,4.50
2018-12-23T13:36:50.907Z,11.60
2018-12-23T13:39:18.459Z,8.50
2018-12-23T13:41:50.252Z,7.10
2018-12-23T13:48:04.012Z,3.80
2018-12-23T13:50:45.352Z,3.80
2018-12-23T13:53:26.449Z,4.63
2018-12-23T13:56:07.369Z,5.67
2018-12-23T13:58:48.338Z,4.97
2018-12-23T14:01:29.584Z,4.43
2018-12-23T14:04:10.791Z,4.00
2018-12-23T14:06:51.546Z,3.40
2018-12-23T14:09:32.442Z,3.50
2018-12-23T14:12:13.545Z,3.73
2018-12-23T14:14:53.904Z,3.10
2018-12-23T14:17:34.976Z,3.70
2018-12-23T14:20:16.400Z,3.33
2018-12-23T14:22:57.136Z,2.93
2018-12-23T14:25:38.616Z,3.50
2018-12-23T14:28:19.571Z,3.57
2018-12-23T14:31:00.977Z,2.97
2018-12-23T14:33:41.988Z,3.57
2018-12-23T14:36:22.932Z,3.93
2018-12-23T14:39:04.277Z,3.10
2018-12-23T14:41:45.429Z,2.90
2018-12-23T14:44:26.382Z,3.20
2018-12-23T14:47:07.576Z,3.60
2018-12-23T14:49:48.233Z,3.10
2018-12-23T14:52:29.512Z,2.90
2018-12-23T14:55:09.864Z,3.10
2018-12-23T14:57:50.758Z,3.00
2018-12-23T15:00:32.071Z,3.40
2018-12-23T15:03:12.436Z,2.70
2018-12-23T15:05:53.699Z,2.70
2018-12-23T15:08:34.299Z,3.13
2018-12-23T15:11:15.319Z,3.30
2018-12-23T15:13:56.336Z,2.37
2018-12-23T15:16:37.252Z,2.93
2018-12-23T15:19:18.568Z,2.50
2018-12-23T15:21:58.958Z,2.43
2018-12-23T15:24:40.060Z,2.73
2018-12-23T15:27:20.440Z,2.50
2018-12-23T15:30:01.705Z,2.20
2018-12-23T15:32:42.812Z,2.77
2018-12-23T15:35:23.879Z,3.03
2018-12-23T15:38:05.083Z,3.20
2018-12-23T15:40:46.279Z,3.13
2018-12-23T15:43:27.231Z,2.90
2018-12-23T15:46:08.487Z,3.00
2018-12-23T15:48:49.173Z,3.10
2018-12-23T15:51:30.326Z,2.80
2018-12-23T15:54:11.504Z,4.63
2018-12-23T15:56:52.813Z,3.60
2018-12-23T15:59:33.798Z,3.30
2018-12-23T16:02:14.964Z,3.43
2018-12-23T16:04:55.874Z,3.33
2018-12-23T16:07:36.144Z,3.37
2018-12-23T16:10:17.264Z,3.63
2018-12-23T16:12:57.564Z,3.33
2018-12-23T16:15:38.625Z,3.37
2018-12-23T16:18:19.680Z,3.70
2018-12-23T16:21:00.465Z,3.70
2018-12-23T16:23:41.876Z,3.80
2018-12-23T16:26:22.897Z,3.70
2018-12-23T16:29:04.008Z,3.83
2018-12-23T16:31:45.067Z,4.37
2018-12-23T16:34:25.920Z,4.00
2018-12-23T16:37:06.869Z,3.90
2018-12-23T16:39:48.025Z,3.93
2018-12-23T16:42:28.992Z,3.10
2018-12-23T16:45:09.422Z,3.70
2018-12-23T16:47:50.401Z,3.87
2018-12-23T16:50:31.496Z,3.70
2018-12-23T16:53:12.716Z,3.47
2018-12-23T16:55:53.916Z,3.70
2018-12-23T16:58:34.750Z,3.87
2018-12-23T17:01:15.405Z,3.50
2018-12-23T17:03:56.362Z,3.93
2018-12-23T17:06:37.291Z,4.53
2018-12-23T17:09:18.076Z,4.53
2018-12-23T17:11:59.111Z,4.77
2018-12-23T17:14:40.224Z,5.33
2018-12-23T17:17:21.497Z,5.33
2018-12-23T17:20:01.914Z,6.10
2018-12-23T17:22:43.242Z,6.00
2018-12-23T17:25:24.504Z,6.47
2018-12-23T17:28:05.579Z,5.93
2018-12-23T17:30:46.594Z,6.20
2018-12-23T17:33:27.407Z,6.60
2018-12-23T17:36:08.555Z,6.30
2018-12-23T17:38:49.688Z,7.80
2018-12-23T17:41:30.658Z,9.63
2018-12-23T17:44:11.047Z,9.00
2018-12-23T17:46:53.160Z,9.77
2018-12-23T17:49:34.431Z,9.03
2018-12-23T17:52:23.216Z,8.03
2018-12-23T17:55:00.273Z,8.57
2018-12-23T17:57:41.602Z,9.07
2018-12-23T18:00:22.945Z,9.97
2018-12-23T18:03:04.120Z,9.37
2018-12-23T18:05:45.031Z,9.10
2018-12-23T18:08:26.303Z,9.47
2018-12-23T18:11:07.374Z,9.17
2018-12-23T18:13:48.544Z,9.00
2018-12-23T18:16:29.478Z,9.03
2018-12-23T18:19:10.152Z,8.90
2018-12-23T18:21:50.621Z,9.30
2018-12-23T18:24:31.331Z,9.00
2018-12-23T18:27:11.678Z,8.93
2018-12-23T18:29:52.852Z,9.27
2018-12-23T18:32:34.122Z,9.20
2018-12-23T18:35:15.235Z,8.97
2018-12-23T18:37:56.280Z,9.27
2018-12-23T18:40:36.936Z,8.93
2018-12-23T18:43:18.103Z,9.20
2018-12-23T18:45:59.136Z,11.67
2018-12-23T18:48:39.512Z,10.10
2018-12-23T18:51:19.899Z,10.00
2018-12-23T18:54:01.021Z,10.87
2018-12-23T18:56:42.005Z,9.47
2018-12-23T18:59:22.419Z,9.73
2018-12-23T19:02:03.430Z,9.90
2018-12-23T19:04:44.392Z,11.03
2018-12-23T19:07:24.852Z,10.10
2018-12-23T19:10:05.732Z,9.60
2018-12-23T19:12:46.960Z,10.07
2018-12-23T19:15:28.167Z,10.27
2018-12-23T19:18:08.736Z,10.53
2018-12-23T19:20:49.818Z,10.70
2018-12-23T19:23:30.600Z,10.80
2018-12-23T19:26:11.204Z,9.83
2018-12-23T19:28:51.563Z,10.83
2018-12-23T19:31:32.543Z,11.03
2018-12-23T19:34:13.652Z,10.60
2018-12-23T19:36:54.901Z,10.30
2018-12-23T19:39:35.720Z,10.13
2018-12-23T19:42:16.639Z,10.60
2018-12-23T19:44:57.832Z,11.13
2018-12-23T19:47:39.281Z,11.47
2018-12-23T19:50:20.176Z,11.50
2018-12-23T19:53:01.348Z,11.27
2018-12-23T19:55:41.803Z,11.77
2018-12-23T19:58:22.272Z,10.83
2018-12-23T20:01:03.119Z,11.43
2018-12-23T20:03:44.128Z,11.90
2018-12-23T20:06:25.307Z,12.30
2018-12-23T20:09:06.383Z,11.90
2018-12-23T20:11:47.504Z,11.17
2018-12-23T20:14:28.591Z,11.37
2018-12-23T20:17:09.614Z,11.70
2018-12-23T20:19:50.827Z,11.03
2018-12-23T20:22:31.801Z,10.70
2018-12-23T20:25:12.952Z,11.07
2018-12-23T20:27:54.292Z,11.53
2018-12-23T20:30:35.479Z,11.93
2018-12-23T20:33:16.389Z,11.07
2018-12-23T20:35:57.632Z,12.27
2018-12-23T20:38:38.825Z,11.70
2018-12-23T20:41:19.503Z,12.40
2018-12-23T20:44:00.469Z,12.37
2018-12-23T20:46:41.512Z,11.87
2018-12-23T20:49:22.523Z,8.87
2018-12-23T20:52:03.775Z,6.73
2018-12-23T20:54:44.568Z,5.00
2018-12-23T20:57:25.195Z,2.13
2018-12-23T21:00:06.600Z,1.40
2018-12-23T21:02:47.852Z,1.30
2018-12-23T21:05:29.309Z,1.00
2018-12-23T21:08:09.760Z,0.90
2018-12-23T21:10:50.792Z,1.00
2018-12-23T21:13:32.121Z,1.20
2018-12-23T21:16:12.811Z,1.00
2018-12-23T21:18:54.081Z,0.80
2018-12-23T21:21:34.889Z,0.90
2018-12-23T21:24:16.110Z,1.00
2018-12-23T21:26:57.467Z,0.73
2018-12-23T21:29:38.650Z,0.90
2018-12-23T21:32:19.910Z,0.70
2018-12-23T21:35:00.921Z,0.70
2018-12-23T21:37:41.792Z,0.70
2018-12-23T21:40:22.731Z,0.83
2018-12-23T21:43:03.909Z,1.10
2018-12-23T21:45:48.088Z,1.10
2018-12-23T21:48:29.429Z,1.17
2018-12-23T21:51:10.404Z,0.80
2018-12-23T21:53:52.588Z,0.80
2018-12-23T21:56:33.416Z,0.30
2018-12-23T21:59:15.277Z,0.50
2018-12-23T22:01:56.080Z,0.50
2018-12-23T22:04:37.199Z,0.50
2018-12-23T22:07:18.180Z,0.80
2018-12-23T22:09:59.212Z,0.50
2018-12-23T22:12:39.838Z,0.70
2018-12-23T22:15:20.876Z,0.73
2018-12-23T22:18:01.242Z,0.63
2018-12-23T22:20:42.396Z,0.70
2018-12-23T22:23:23.356Z,0.60
2018-12-23T22:26:03.627Z,0.40
2018-12-23T22:28:45.018Z,0.50
2018-12-23T22:31:25.799Z,0.90
2018-12-23T22:34:06.997Z,0.80
2018-12-23T22:36:48.003Z,0.80
2018-12-23T22:39:28.395Z,0.50
2018-12-23T22:42:09.859Z,0.40
2018-12-23T22:44:50.652Z,0.43
2018-12-23T22:47:31.448Z,0.70
2018-12-23T22:50:12.368Z,0.30
2018-12-23T22:52:53.660Z,0.50
2018-12-23T22:55:34.830Z,0.40
2018-12-23T22:58:15.408Z,0.30
2018-12-23T23:00:56.361Z,0.50
2018-12-23T23:03:37.354Z,0.53
2018-12-23T23:06:18.023Z,0.50
2018-12-23T23:08:59.047Z,0.30
2018-12-23T23:11:40.020Z,0.60
2018-12-23T23:14:21.100Z,0.40
2018-12-23T23:17:02.155Z,0.57
2018-12-23T23:19:43.391Z,0.50
2018-12-23T23:22:24.643Z,0.30
2018-12-23T23:25:05.736Z,0.40
2018-12-23T23:27:46.421Z,0.40
2018-12-23T23:30:27.600Z,0.40
2018-12-23T23:33:08.158Z,0.30
2018-12-23T23:35:49.155Z,0.40
2018-12-23T23:38:30.112Z,0.40
2018-12-23T23:41:10.862Z,0.30
2018-12-23T23:43:51.282Z,1.10
2018-12-23T23:46:31.728Z,1.00
2018-12-23T23:49:12.868Z,0.57
2018-12-23T23:51:54.034Z,0.57
2018-12-23T23:54:34.713Z,0.40
2018-12-23T23:57:15.844Z,0.47
2018-12-23T23:59:56.738Z,0.40
